sensor_id;sensor_type;location;lat;lon;timestamp;pressure;altitude;pressure_sealevel;temperature;humidity
77454;BME280;66538;53.150;18.160;2023-07-31T00:00:53;100678.77;;;18.65;70.10
77454;BME280;66538;53.150;18.160;2023-07-31T00:03:26;100679.64;;;18.60;70.21
77454;BME280;66538;53.150;18.160;2023-07-31T00:05:53;100683.19;;;18.54;70.45
77454;BME280;66538;53.150;18.160;2023-07-31T00:08:19;100681.38;;;18.47;70.32
77454;BME280;66538;53.150;18.160;2023-07-31T00:10:46;100679.30;;;18.45;70.62
77454;BME280;66538;53.150;18.160;2023-07-31T00:13:12;100683.85;;;18.42;70.47
77454;BME280;66538;53.150;18.160;2023-07-31T00:15:39;100685.63;;;18.39;70.61
77454;BME280;66538;53.150;18.160;2023-07-31T00:18:05;100685.00;;;18.36;70.54
77454;BME280;66538;53.150;18.160;2023-07-31T00:20:32;100679.02;;;18.34;70.38
77454;BME280;66538;53.150;18.160;2023-07-31T00:22:58;100683.22;;;18.32;70.69
77454;BME280;66538;53.150;18.160;2023-07-31T00:25:25;100691.05;;;18.32;70.63
77454;BME280;66538;53.150;18.160;2023-07-31T00:27:51;100691.95;;;18.31;70.78
77454;BME280;66538;53.150;18.160;2023-07-31T00:30:18;100691.49;;;18.30;70.79
77454;BME280;66538;53.150;18.160;2023-07-31T00:32:45;100682.24;;;18.30;70.77
77454;BME280;66538;53.150;18.160;2023-07-31T00:35:11;100681.86;;;18.29;70.84
77454;BME280;66538;53.150;18.160;2023-07-31T00:37:38;100685.27;;;18.27;70.83
77454;BME280;66538;53.150;18.160;2023-07-31T00:40:05;100684.20;;;18.25;70.99
77454;BME280;66538;53.150;18.160;2023-07-31T00:42:32;100686.73;;;18.25;70.76
77454;BME280;66538;53.150;18.160;2023-07-31T00:44:58;100693.33;;;18.25;70.98
77454;BME280;66538;53.150;18.160;2023-07-31T00:47:25;100695.14;;;18.25;70.99
77454;BME280;66538;53.150;18.160;2023-07-31T00:49:53;100693.94;;;18.25;70.91
77454;BME280;66538;53.150;18.160;2023-07-31T00:52:20;100695.73;;;18.26;71.07
77454;BME280;66538;53.150;18.160;2023-07-31T00:54:48;100702.38;;;18.29;71.16
77454;BME280;66538;53.150;18.160;2023-07-31T00:57:15;100702.20;;;18.28;71.22
77454;BME280;66538;53.150;18.160;2023-07-31T00:59:41;100706.11;;;18.28;71.44
77454;BME280;66538;53.150;18.160;2023-07-31T01:02:08;100705.94;;;18.25;71.81
77454;BME280;66538;53.150;18.160;2023-07-31T01:04:35;100704.06;;;18.22;72.34
77454;BME280;66538;53.150;18.160;2023-07-31T01:09:42;100704.30;;;18.06;73.07
77454;BME280;66538;53.150;18.160;2023-07-31T01:12:14;100708.73;;;18.00;73.38
77454;BME280;66538;53.150;18.160;2023-07-31T01:17:27;100715.75;;;17.91;74.01
77454;BME280;66538;53.150;18.160;2023-07-31T01:20:01;100713.77;;;17.90;74.40
77454;BME280;66538;53.150;18.160;2023-07-31T01:22:58;100719.38;;;17.86;74.70
77454;BME280;66538;53.150;18.160;2023-07-31T01:31:28;100715.70;;;17.72;75.41
77454;BME280;66538;53.150;18.160;2023-07-31T01:33:58;100719.11;;;17.69;75.75
77454;BME280;66538;53.150;18.160;2023-07-31T01:36:26;100718.40;;;17.65;75.66
77454;BME280;66538;53.150;18.160;2023-07-31T01:38:58;100719.83;;;17.61;75.70
77454;BME280;66538;53.150;18.160;2023-07-31T01:41:26;100721.52;;;17.57;75.77
77454;BME280;66538;53.150;18.160;2023-07-31T01:43:52;100716.94;;;17.52;75.92
77454;BME280;66538;53.150;18.160;2023-07-31T01:46:19;100711.97;;;17.47;75.82
77454;BME280;66538;53.150;18.160;2023-07-31T01:48:46;100708.81;;;17.43;76.02
77454;BME280;66538;53.150;18.160;2023-07-31T01:51:12;100710.64;;;17.40;76.18
77454;BME280;66538;53.150;18.160;2023-07-31T01:53:39;100709.40;;;17.37;76.09
77454;BME280;66538;53.150;18.160;2023-07-31T01:56:05;100706.60;;;17.33;76.11
77454;BME280;66538;53.150;18.160;2023-07-31T01:58:33;100710.49;;;17.31;76.26
77454;BME280;66538;53.150;18.160;2023-07-31T02:00:59;100711.28;;;17.30;76.47
77454;BME280;66538;53.150;18.160;2023-07-31T02:03:27;100713.63;;;17.26;76.51
77454;BME280;66538;53.150;18.160;2023-07-31T02:05:53;100713.63;;;17.24;76.76
77454;BME280;66538;53.150;18.160;2023-07-31T02:08:20;100709.92;;;17.20;76.93
77454;BME280;66538;53.150;18.160;2023-07-31T02:10:47;100709.48;;;17.16;76.66
77454;BME280;66538;53.150;18.160;2023-07-31T02:13:13;100716.23;;;17.13;76.80
77454;BME280;66538;53.150;18.160;2023-07-31T02:15:40;100716.08;;;17.08;76.89
77454;BME280;66538;53.150;18.160;2023-07-31T02:18:06;100715.05;;;17.06;77.00
77454;BME280;66538;53.150;18.160;2023-07-31T02:20:34;100709.84;;;17.03;77.15
77454;BME280;66538;53.150;18.160;2023-07-31T02:23:02;100717.00;;;17.00;77.17
77454;BME280;66538;53.150;18.160;2023-07-31T02:25:29;100713.12;;;16.95;77.32
77454;BME280;66538;53.150;18.160;2023-07-31T02:27:56;100711.08;;;16.93;77.56
77454;BME280;66538;53.150;18.160;2023-07-31T02:30:22;100718.86;;;16.89;77.55
77454;BME280;66538;53.150;18.160;2023-07-31T02:32:49;100722.12;;;16.86;77.44
77454;BME280;66538;53.150;18.160;2023-07-31T02:35:16;100719.17;;;16.82;77.84
77454;BME280;66538;53.150;18.160;2023-07-31T02:37:44;100719.64;;;16.79;77.89
77454;BME280;66538;53.150;18.160;2023-07-31T02:40:11;100715.39;;;16.76;78.15
77454;BME280;66538;53.150;18.160;2023-07-31T02:42:38;100718.80;;;16.72;78.32
77454;BME280;66538;53.150;18.160;2023-07-31T02:45:05;100724.61;;;16.70;78.32
77454;BME280;66538;53.150;18.160;2023-07-31T02:47:32;100726.59;;;16.66;78.40
77454;BME280;66538;53.150;18.160;2023-07-31T02:49:58;100726.38;;;16.63;78.74
77454;BME280;66538;53.150;18.160;2023-07-31T02:52:26;100728.54;;;16.59;78.87
77454;BME280;66538;53.150;18.160;2023-07-31T02:54:52;100726.64;;;16.56;78.84
77454;BME280;66538;53.150;18.160;2023-07-31T02:57:19;100723.71;;;16.52;78.85
77454;BME280;66538;53.150;18.160;2023-07-31T02:59:46;100722.27;;;16.48;78.92
77454;BME280;66538;53.150;18.160;2023-07-31T03:02:12;100723.99;;;16.45;78.96
77454;BME280;66538;53.150;18.160;2023-07-31T03:04:39;100732.70;;;16.44;78.85
77454;BME280;66538;53.150;18.160;2023-07-31T03:07:06;100727.58;;;16.43;79.21
77454;BME280;66538;53.150;18.160;2023-07-31T03:09:33;100720.66;;;16.41;78.97
77454;BME280;66538;53.150;18.160;2023-07-31T03:11:59;100721.20;;;16.41;79.02
77454;BME280;66538;53.150;18.160;2023-07-31T03:14:26;100722.68;;;16.41;79.09
77454;BME280;66538;53.150;18.160;2023-07-31T03:16:53;100724.02;;;16.42;78.80
77454;BME280;66538;53.150;18.160;2023-07-31T03:19:20;100724.35;;;16.43;78.85
77454;BME280;66538;53.150;18.160;2023-07-31T03:21:47;100727.52;;;16.46;78.97
77454;BME280;66538;53.150;18.160;2023-07-31T03:24:13;100735.11;;;16.47;79.07
77454;BME280;66538;53.150;18.160;2023-07-31T03:26:40;100734.09;;;16.46;78.99
77454;BME280;66538;53.150;18.160;2023-07-31T03:29:08;100742.16;;;16.51;78.95
77454;BME280;66538;53.150;18.160;2023-07-31T03:31:35;100742.66;;;16.52;78.81
77454;BME280;66538;53.150;18.160;2023-07-31T03:34:01;100742.64;;;16.56;78.73
77454;BME280;66538;53.150;18.160;2023-07-31T03:36:28;100742.55;;;16.58;78.75
77454;BME280;66538;53.150;18.160;2023-07-31T03:38:54;100742.12;;;16.60;78.68
77454;BME280;66538;53.150;18.160;2023-07-31T03:41:21;100745.14;;;16.62;78.61
77454;BME280;66538;53.150;18.160;2023-07-31T03:43:49;100746.85;;;16.67;78.71
77454;BME280;66538;53.150;18.160;2023-07-31T03:46:19;100747.60;;;16.70;78.64
77454;BME280;66538;53.150;18.160;2023-07-31T03:48:46;100751.66;;;16.74;78.54
77454;BME280;66538;53.150;18.160;2023-07-31T03:51:12;100749.60;;;16.78;78.54
77454;BME280;66538;53.150;18.160;2023-07-31T03:53:39;100751.92;;;16.80;78.47
77454;BME280;66538;53.150;18.160;2023-07-31T03:56:05;100755.77;;;16.82;78.27
77454;BME280;66538;53.150;18.160;2023-07-31T03:58:32;100756.06;;;16.83;78.29
77454;BME280;66538;53.150;18.160;2023-07-31T04:00:59;100752.95;;;16.85;78.07
77454;BME280;66538;53.150;18.160;2023-07-31T04:03:25;100756.02;;;16.88;77.86
77454;BME280;66538;53.150;18.160;2023-07-31T04:05:54;100755.51;;;16.93;77.69
77454;BME280;66538;53.150;18.160;2023-07-31T04:08:22;100757.79;;;16.99;77.47
77454;BME280;66538;53.150;18.160;2023-07-31T04:10:48;100759.70;;;17.06;77.30
77454;BME280;66538;53.150;18.160;2023-07-31T04:13:15;100760.08;;;17.11;76.93
77454;BME280;66538;53.150;18.160;2023-07-31T04:15:42;100759.26;;;17.13;76.90
77454;BME280;66538;53.150;18.160;2023-07-31T04:18:08;100754.81;;;17.13;76.64
77454;BME280;66538;53.150;18.160;2023-07-31T04:20:35;100754.88;;;17.13;76.30
77454;BME280;66538;53.150;18.160;2023-07-31T04:23:01;100753.46;;;17.12;76.14
77454;BME280;66538;53.150;18.160;2023-07-31T04:25:28;100750.92;;;17.08;75.95
77454;BME280;66538;53.150;18.160;2023-07-31T04:27:54;100753.30;;;17.06;76.06
77454;BME280;66538;53.150;18.160;2023-07-31T04:30:21;100754.30;;;17.02;76.23
77454;BME280;66538;53.150;18.160;2023-07-31T04:32:48;100751.55;;;17.01;76.28
77454;BME280;66538;53.150;18.160;2023-07-31T04:35:14;100746.54;;;16.99;76.06
77454;BME280;66538;53.150;18.160;2023-07-31T04:37:41;100745.71;;;16.99;75.99
77454;BME280;66538;53.150;18.160;2023-07-31T04:40:08;100749.33;;;16.97;75.91
77454;BME280;66538;53.150;18.160;2023-07-31T04:42:35;100746.70;;;16.97;75.95
77454;BME280;66538;53.150;18.160;2023-07-31T04:45:01;100742.41;;;16.97;75.87
77454;BME280;66538;53.150;18.160;2023-07-31T04:47:28;100750.15;;;16.99;75.86
77454;BME280;66538;53.150;18.160;2023-07-31T04:49:55;100747.59;;;17.01;75.90
77454;BME280;66538;53.150;18.160;2023-07-31T04:52:21;100751.06;;;17.05;75.69
77454;BME280;66538;53.150;18.160;2023-07-31T04:54:48;100754.72;;;17.10;75.66
77454;BME280;66538;53.150;18.160;2023-07-31T04:57:14;100757.17;;;17.18;75.46
77454;BME280;66538;53.150;18.160;2023-07-31T04:59:41;100757.76;;;17.25;74.98
77454;BME280;66538;53.150;18.160;2023-07-31T05:02:08;100759.92;;;17.31;74.60
77454;BME280;66538;53.150;18.160;2023-07-31T05:04:35;100762.70;;;17.37;74.39
77454;BME280;66538;53.150;18.160;2023-07-31T05:07:01;100758.07;;;17.45;74.39
77454;BME280;66538;53.150;18.160;2023-07-31T05:09:28;100755.24;;;17.57;73.73
77454;BME280;66538;53.150;18.160;2023-07-31T05:11:54;100758.97;;;17.65;73.30
77454;BME280;66538;53.150;18.160;2023-07-31T05:14:21;100762.62;;;17.70;72.90
77454;BME280;66538;53.150;18.160;2023-07-31T05:16:47;100769.45;;;17.74;72.30
77454;BME280;66538;53.150;18.160;2023-07-31T05:19:14;100766.52;;;17.79;72.13
77454;BME280;66538;53.150;18.160;2023-07-31T05:21:41;100765.40;;;17.88;72.00
77454;BME280;66538;53.150;18.160;2023-07-31T05:24:07;100763.52;;;17.96;71.52
77454;BME280;66538;53.150;18.160;2023-07-31T05:26:34;100766.80;;;18.05;71.69
77454;BME280;66538;53.150;18.160;2023-07-31T05:29:01;100766.67;;;18.11;71.22
77454;BME280;66538;53.150;18.160;2023-07-31T05:31:27;100768.61;;;18.14;70.78
77454;BME280;66538;53.150;18.160;2023-07-31T05:33:54;100771.33;;;18.15;70.84
77454;BME280;66538;53.150;18.160;2023-07-31T05:36:21;100771.14;;;18.21;70.47
77454;BME280;66538;53.150;18.160;2023-07-31T05:38:47;100766.85;;;18.24;69.87
77454;BME280;66538;53.150;18.160;2023-07-31T05:41:14;100765.80;;;18.22;69.37
77454;BME280;66538;53.150;18.160;2023-07-31T05:43:41;100765.23;;;18.23;69.66
77454;BME280;66538;53.150;18.160;2023-07-31T05:46:07;100762.92;;;18.27;69.49
77454;BME280;66538;53.150;18.160;2023-07-31T05:48:35;100761.10;;;18.33;69.75
77454;BME280;66538;53.150;18.160;2023-07-31T05:51:02;100756.13;;;18.39;69.28
77454;BME280;66538;53.150;18.160;2023-07-31T05:53:29;100751.17;;;18.47;69.27
77454;BME280;66538;53.150;18.160;2023-07-31T05:55:55;100745.91;;;18.53;68.74
77454;BME280;66538;53.150;18.160;2023-07-31T05:58:22;100743.59;;;18.61;68.66
77454;BME280;66538;53.150;18.160;2023-07-31T06:00:48;100747.90;;;18.67;68.04
77454;BME280;66538;53.150;18.160;2023-07-31T06:03:15;100751.70;;;18.72;67.47
77454;BME280;66538;53.150;18.160;2023-07-31T06:05:41;100750.39;;;18.78;67.91
77454;BME280;66538;53.150;18.160;2023-07-31T06:08:08;100750.27;;;18.87;67.68
77454;BME280;66538;53.150;18.160;2023-07-31T06:10:35;100756.42;;;18.92;67.48
77454;BME280;66538;53.150;18.160;2023-07-31T06:13:01;100756.30;;;19.01;67.11
77454;BME280;66538;53.150;18.160;2023-07-31T06:15:28;100755.94;;;19.11;67.08
77454;BME280;66538;53.150;18.160;2023-07-31T06:17:54;100760.51;;;19.23;66.38
77454;BME280;66538;53.150;18.160;2023-07-31T06:20:22;100757.44;;;19.31;65.50
77454;BME280;66538;53.150;18.160;2023-07-31T06:22:48;100757.57;;;19.37;65.71
77454;BME280;66538;53.150;18.160;2023-07-31T06:25:15;100763.16;;;19.43;65.87
77454;BME280;66538;53.150;18.160;2023-07-31T06:27:41;100763.16;;;19.49;65.31
77454;BME280;66538;53.150;18.160;2023-07-31T06:31:00;100762.03;;;19.58;65.43
77454;BME280;66538;53.150;18.160;2023-07-31T06:33:27;100758.85;;;19.73;65.15
77454;BME280;66538;53.150;18.160;2023-07-31T06:35:54;100757.65;;;19.87;64.64
77454;BME280;66538;53.150;18.160;2023-07-31T06:38:24;100760.15;;;19.94;63.35
77454;BME280;66538;53.150;18.160;2023-07-31T06:40:51;100763.95;;;19.99;63.41
77454;BME280;66538;53.150;18.160;2023-07-31T06:43:18;100762.73;;;20.05;63.13
77454;BME280;66538;53.150;18.160;2023-07-31T06:45:45;100758.88;;;20.12;63.08
77454;BME280;66538;53.150;18.160;2023-07-31T06:48:12;100762.34;;;20.21;62.90
77454;BME280;66538;53.150;18.160;2023-07-31T06:50:39;100759.75;;;20.27;61.55
77454;BME280;66538;53.150;18.160;2023-07-31T06:53:05;100763.34;;;20.29;60.98
77454;BME280;66538;53.150;18.160;2023-07-31T06:55:34;100759.85;;;20.33;61.08
77454;BME280;66538;53.150;18.160;2023-07-31T06:58:00;100755.21;;;20.43;60.77
77454;BME280;66538;53.150;18.160;2023-07-31T07:00:27;100759.73;;;20.54;60.85
77454;BME280;66538;53.150;18.160;2023-07-31T07:02:55;100759.63;;;20.65;60.32
77454;BME280;66538;53.150;18.160;2023-07-31T07:05:21;100762.10;;;20.74;59.86
77454;BME280;66538;53.150;18.160;2023-07-31T07:07:49;100760.35;;;20.79;59.39
77454;BME280;66538;53.150;18.160;2023-07-31T07:10:17;100758.13;;;20.85;59.16
77454;BME280;66538;53.150;18.160;2023-07-31T07:12:45;100757.70;;;20.93;59.27
77454;BME280;66538;53.150;18.160;2023-07-31T07:15:12;100751.93;;;21.05;59.19
77454;BME280;66538;53.150;18.160;2023-07-31T07:17:38;100753.58;;;21.18;59.18
77454;BME280;66538;53.150;18.160;2023-07-31T07:20:06;100756.07;;;21.29;58.20
77454;BME280;66538;53.150;18.160;2023-07-31T07:22:33;100760.69;;;21.37;57.62
77454;BME280;66538;53.150;18.160;2023-07-31T07:24:59;100766.41;;;21.42;57.40
77454;BME280;66538;53.150;18.160;2023-07-31T07:27:26;100763.77;;;21.45;57.00
77454;BME280;66538;53.150;18.160;2023-07-31T07:29:53;100760.70;;;21.46;57.37
77454;BME280;66538;53.150;18.160;2023-07-31T07:32:20;100766.96;;;21.53;57.40
77454;BME280;66538;53.150;18.160;2023-07-31T07:34:48;100766.86;;;21.63;57.29
77454;BME280;66538;53.150;18.160;2023-07-31T07:37:15;100765.38;;;21.74;56.92
77454;BME280;66538;53.150;18.160;2023-07-31T07:39:43;100765.92;;;21.85;57.50
77454;BME280;66538;53.150;18.160;2023-07-31T07:42:10;100765.81;;;22.02;57.82
77454;BME280;66538;53.150;18.160;2023-07-31T07:44:36;100765.09;;;22.19;57.14
77454;BME280;66538;53.150;18.160;2023-07-31T07:47:04;100767.53;;;22.27;56.15
77454;BME280;66538;53.150;18.160;2023-07-31T07:49:33;100766.31;;;22.31;55.94
77454;BME280;66538;53.150;18.160;2023-07-31T07:52:02;100767.23;;;22.42;55.95
77454;BME280;66538;53.150;18.160;2023-07-31T07:54:30;100757.63;;;22.53;56.06
77454;BME280;66538;53.150;18.160;2023-07-31T07:56:56;100757.29;;;22.70;54.78
77454;BME280;66538;53.150;18.160;2023-07-31T07:59:23;100752.09;;;22.80;54.80
77454;BME280;66538;53.150;18.160;2023-07-31T08:01:49;100752.97;;;22.91;54.73
77454;BME280;66538;53.150;18.160;2023-07-31T08:04:16;100757.44;;;23.00;53.56
77454;BME280;66538;53.150;18.160;2023-07-31T08:06:43;100758.77;;;22.99;52.52
77454;BME280;66538;53.150;18.160;2023-07-31T08:09:09;100757.10;;;22.89;51.23
77454;BME280;66538;53.150;18.160;2023-07-31T08:11:36;100758.16;;;22.70;51.23
77454;BME280;66538;53.150;18.160;2023-07-31T08:14:03;100754.61;;;22.62;53.08
77454;BME280;66538;53.150;18.160;2023-07-31T08:16:30;100753.21;;;22.68;53.85
77454;BME280;66538;53.150;18.160;2023-07-31T08:18:56;100756.14;;;22.78;53.78
77454;BME280;66538;53.150;18.160;2023-07-31T08:21:23;100752.89;;;22.81;51.99
77454;BME280;66538;53.150;18.160;2023-07-31T08:23:50;100749.85;;;22.85;52.07
77454;BME280;66538;53.150;18.160;2023-07-31T08:26:18;100750.23;;;22.92;51.77
77454;BME280;66538;53.150;18.160;2023-07-31T08:28:45;100748.27;;;22.95;51.30
77454;BME280;66538;53.150;18.160;2023-07-31T08:31:12;100749.73;;;22.96;51.30
77454;BME280;66538;53.150;18.160;2023-07-31T08:33:39;100750.30;;;22.97;51.14
77454;BME280;66538;53.150;18.160;2023-07-31T08:36:06;100749.28;;;22.97;51.50
77454;BME280;66538;53.150;18.160;2023-07-31T08:38:33;100745.56;;;23.05;51.05
77454;BME280;66538;53.150;18.160;2023-07-31T08:41:00;100739.48;;;23.11;50.90
77454;BME280;66538;53.150;18.160;2023-07-31T08:43:27;100741.36;;;23.21;50.77
77454;BME280;66538;53.150;18.160;2023-07-31T08:45:54;100740.37;;;23.30;50.43
77454;BME280;66538;53.150;18.160;2023-07-31T08:48:22;100735.34;;;23.36;50.11
77454;BME280;66538;53.150;18.160;2023-07-31T08:50:51;100735.73;;;23.45;49.49
77454;BME280;66538;53.150;18.160;2023-07-31T08:53:19;100734.36;;;23.52;48.73
77454;BME280;66538;53.150;18.160;2023-07-31T08:55:46;100730.10;;;23.62;49.01
77454;BME280;66538;53.150;18.160;2023-07-31T08:58:13;100725.60;;;23.80;49.25
77454;BME280;66538;53.150;18.160;2023-07-31T09:00:41;100725.35;;;24.00;48.07
77454;BME280;66538;53.150;18.160;2023-07-31T09:03:15;100729.19;;;24.07;47.91
77454;BME280;66538;53.150;18.160;2023-07-31T09:05:46;100728.10;;;24.08;48.21
77454;BME280;66538;53.150;18.160;2023-07-31T09:08:14;100726.00;;;24.12;47.49
77454;BME280;66538;53.150;18.160;2023-07-31T09:10:42;100724.02;;;24.15;47.40
77454;BME280;66538;53.150;18.160;2023-07-31T09:13:10;100723.07;;;24.19;47.20
77454;BME280;66538;53.150;18.160;2023-07-31T09:15:37;100719.20;;;24.23;47.95
77454;BME280;66538;53.150;18.160;2023-07-31T09:18:05;100720.07;;;24.32;47.60
77454;BME280;66538;53.150;18.160;2023-07-31T09:20:32;100715.16;;;24.36;47.17
77454;BME280;66538;53.150;18.160;2023-07-31T09:23:10;100714.83;;;24.35;47.38
77454;BME280;66538;53.150;18.160;2023-07-31T09:25:39;100711.82;;;24.22;46.63
77454;BME280;66538;53.150;18.160;2023-07-31T09:28:08;100708.13;;;24.08;47.96
77454;BME280;66538;53.150;18.160;2023-07-31T09:30:50;100703.09;;;24.09;48.21
77454;BME280;66538;53.150;18.160;2023-07-31T09:33:20;100699.98;;;24.18;48.31
77454;BME280;66538;53.150;18.160;2023-07-31T09:35:47;100701.80;;;24.28;48.40
77454;BME280;66538;53.150;18.160;2023-07-31T09:38:15;100696.16;;;24.34;48.44
77454;BME280;66538;53.150;18.160;2023-07-31T09:40:43;100695.73;;;24.29;48.04
77454;BME280;66538;53.150;18.160;2023-07-31T09:43:12;100697.02;;;24.11;48.52
77454;BME280;66538;53.150;18.160;2023-07-31T09:45:42;100692.19;;;23.98;48.61
77454;BME280;66538;53.150;18.160;2023-07-31T09:48:12;100689.31;;;24.00;48.74
77454;BME280;66538;53.150;18.160;2023-07-31T09:50:41;100687.89;;;23.94;48.56
77454;BME280;66538;53.150;18.160;2023-07-31T09:53:10;100680.58;;;23.79;48.95
77454;BME280;66538;53.150;18.160;2023-07-31T09:55:37;100678.58;;;23.60;49.02
77454;BME280;66538;53.150;18.160;2023-07-31T09:58:07;100673.91;;;23.34;49.35
77454;BME280;66538;53.150;18.160;2023-07-31T10:00:35;100676.76;;;23.03;50.12
77454;BME280;66538;53.150;18.160;2023-07-31T10:03:09;100676.11;;;22.71;50.69
77454;BME280;66538;53.150;18.160;2023-07-31T10:05:49;100682.38;;;22.41;52.80
77454;BME280;66538;53.150;18.160;2023-07-31T10:08:18;100700.60;;;22.10;54.70
77454;BME280;66538;53.150;18.160;2023-07-31T10:10:46;100699.64;;;21.87;56.12
77454;BME280;66538;53.150;18.160;2023-07-31T10:13:13;100705.81;;;21.65;57.00
77454;BME280;66538;53.150;18.160;2023-07-31T10:15:41;100708.20;;;21.37;58.30
77454;BME280;66538;53.150;18.160;2023-07-31T10:18:12;100712.45;;;21.13;60.15
77454;BME280;66538;53.150;18.160;2023-07-31T10:20:40;100710.76;;;20.87;62.05
77454;BME280;66538;53.150;18.160;2023-07-31T10:23:10;100695.58;;;20.64;62.58
77454;BME280;66538;53.150;18.160;2023-07-31T10:25:38;100676.55;;;20.55;62.82
77454;BME280;66538;53.150;18.160;2023-07-31T10:28:05;100678.94;;;20.53;63.00
77454;BME280;66538;53.150;18.160;2023-07-31T10:30:33;100685.39;;;20.53;64.38
77454;BME280;66538;53.150;18.160;2023-07-31T10:33:01;100674.10;;;20.53;64.32
77454;BME280;66538;53.150;18.160;2023-07-31T10:35:29;100673.52;;;20.62;63.91
77454;BME280;66538;53.150;18.160;2023-07-31T10:37:55;100673.07;;;20.81;64.49
77454;BME280;66538;53.150;18.160;2023-07-31T10:40:29;100666.64;;;21.05;64.05
77454;BME280;66538;53.150;18.160;2023-07-31T10:42:57;100659.27;;;21.28;63.04
77454;BME280;66538;53.150;18.160;2023-07-31T10:48:13;100654.39;;;21.72;63.13
77454;BME280;66538;53.150;18.160;2023-07-31T10:50:49;100644.61;;;21.87;62.33
77454;BME280;66538;53.150;18.160;2023-07-31T10:53:31;100638.95;;;22.12;61.92
77454;BME280;66538;53.150;18.160;2023-07-31T10:56:02;100636.21;;;22.46;61.94
77454;BME280;66538;53.150;18.160;2023-07-31T10:58:30;100625.68;;;22.72;62.13
77454;BME280;66538;53.150;18.160;2023-07-31T11:01:05;100625.38;;;22.86;61.77
77454;BME280;66538;53.150;18.160;2023-07-31T11:03:42;100620.23;;;22.94;61.88
77454;BME280;66538;53.150;18.160;2023-07-31T11:06:09;100615.23;;;22.90;61.59
77454;BME280;66538;53.150;18.160;2023-07-31T11:08:42;100612.46;;;22.79;61.81
77454;BME280;66538;53.150;18.160;2023-07-31T11:11:12;100603.81;;;22.62;61.23
77454;BME280;66538;53.150;18.160;2023-07-31T11:13:42;100602.08;;;22.51;61.65
77454;BME280;66538;53.150;18.160;2023-07-31T11:16:10;100605.10;;;22.57;61.57
77454;BME280;66538;53.150;18.160;2023-07-31T11:18:42;100599.63;;;22.54;61.24
77454;BME280;66538;53.150;18.160;2023-07-31T11:21:13;100597.64;;;22.41;61.23
77454;BME280;66538;53.150;18.160;2023-07-31T11:23:40;100597.66;;;22.26;60.83
77454;BME280;66538;53.150;18.160;2023-07-31T11:26:07;100601.76;;;22.13;61.09
77454;BME280;66538;53.150;18.160;2023-07-31T11:28:34;100606.48;;;22.00;60.85
77454;BME280;66538;53.150;18.160;2023-07-31T11:31:02;100610.17;;;21.82;58.47
77454;BME280;66538;53.150;18.160;2023-07-31T11:33:29;100610.16;;;21.64;58.14
77454;BME280;66538;53.150;18.160;2023-07-31T11:35:56;100610.91;;;21.48;58.17
77454;BME280;66538;53.150;18.160;2023-07-31T11:38:24;100613.05;;;21.37;58.75
77454;BME280;66538;53.150;18.160;2023-07-31T11:40:53;100611.63;;;21.26;58.57
77454;BME280;66538;53.150;18.160;2023-07-31T11:43:22;100613.88;;;21.13;58.96
77454;BME280;66538;53.150;18.160;2023-07-31T11:45:50;100613.52;;;21.05;59.19
77454;BME280;66538;53.150;18.160;2023-07-31T11:48:26;100617.34;;;21.04;59.16
77454;BME280;66538;53.150;18.160;2023-07-31T11:50:56;100614.47;;;21.17;59.56
77454;BME280;66538;53.150;18.160;2023-07-31T11:53:31;100621.38;;;21.40;58.97
77454;BME280;66538;53.150;18.160;2023-07-31T11:56:00;100610.20;;;21.72;58.49
77454;BME280;66538;53.150;18.160;2023-07-31T11:58:28;100608.59;;;21.99;58.19
77454;BME280;66538;53.150;18.160;2023-07-31T12:00:58;100598.81;;;22.30;57.87
77454;BME280;66538;53.150;18.160;2023-07-31T12:03:25;100603.17;;;22.67;57.00
77454;BME280;66538;53.150;18.160;2023-07-31T12:05:53;100608.38;;;22.94;56.42
77454;BME280;66538;53.150;18.160;2023-07-31T12:08:23;100607.77;;;23.06;55.51
77454;BME280;66538;53.150;18.160;2023-07-31T12:10:51;100601.54;;;23.05;55.16
77454;BME280;66538;53.150;18.160;2023-07-31T12:13:23;100605.77;;;23.00;56.03
77454;BME280;66538;53.150;18.160;2023-07-31T12:15:54;100607.81;;;22.97;55.73
77454;BME280;66538;53.150;18.160;2023-07-31T12:18:24;100608.20;;;22.97;55.37
77454;BME280;66538;53.150;18.160;2023-07-31T12:20:56;100599.69;;;23.06;54.78
77454;BME280;66538;53.150;18.160;2023-07-31T12:23:28;100603.50;;;23.21;54.22
77454;BME280;66538;53.150;18.160;2023-07-31T12:26:08;100590.89;;;23.46;54.05
77454;BME280;66538;53.150;18.160;2023-07-31T12:28:36;100584.98;;;23.92;53.34
77454;BME280;66538;53.150;18.160;2023-07-31T12:31:05;100581.70;;;24.25;52.92
77454;BME280;66538;53.150;18.160;2023-07-31T12:33:33;100586.52;;;24.31;51.74
77454;BME280;66538;53.150;18.160;2023-07-31T12:36:02;100584.27;;;24.11;51.62
77454;BME280;66538;53.150;18.160;2023-07-31T12:38:30;100583.12;;;24.03;52.24
77454;BME280;66538;53.150;18.160;2023-07-31T12:40:57;100582.80;;;24.07;52.21
77454;BME280;66538;53.150;18.160;2023-07-31T12:43:24;100583.64;;;24.01;52.08
77454;BME280;66538;53.150;18.160;2023-07-31T12:45:51;100579.84;;;23.98;52.71
77454;BME280;66538;53.150;18.160;2023-07-31T12:48:17;100578.77;;;23.88;53.27
77454;BME280;66538;53.150;18.160;2023-07-31T12:50:44;100574.23;;;23.61;53.30
77454;BME280;66538;53.150;18.160;2023-07-31T12:53:11;100572.60;;;23.25;54.07
77454;BME280;66538;53.150;18.160;2023-07-31T12:55:37;100574.64;;;22.96;54.73
77454;BME280;66538;53.150;18.160;2023-07-31T12:58:04;100573.92;;;22.73;55.27